createdAt,value
2019-02-11T00:00:25.397Z,912.33
2019-02-11T00:01:26.460Z,912.33
2019-02-11T00:02:25.171Z,912.37
2019-02-11T00:03:25.285Z,912.38
2019-02-11T00:04:25.227Z,912.40
2019-02-11T00:05:25.441Z,912.42
2019-02-11T00:06:25.046Z,912.44
2019-02-11T00:07:26.562Z,912.45
2019-02-11T00:08:24.993Z,912.44
2019-02-11T00:09:25.385Z,912.44
2019-02-11T00:10:25.191Z,912.48
2019-02-11T00:11:25.207Z,912.48
2019-02-11T00:12:25.310Z,912.51
2019-02-11T00:19:11.120Z,912.44
2019-02-11T00:20:10.954Z,912.45
2019-02-11T00:21:10.530Z,912.44
2019-02-11T00:22:10.513Z,912.46
2019-02-11T00:23:10.471Z,912.50
2019-02-11T00:24:10.472Z,912.57
2019-02-11T00:26:10.929Z,912.63
2019-02-11T00:27:10.336Z,912.68
2019-02-11T00:28:10.828Z,912.65
2019-02-11T00:29:10.740Z,912.66
2019-02-11T00:31:10.601Z,912.62
2019-02-11T00:33:56.739Z,912.54
2019-02-11T00:34:56.717Z,912.54
2019-02-11T00:35:56.814Z,912.54
2019-02-11T00:36:56.631Z,912.54
2019-02-11T00:37:56.607Z,912.58
2019-02-11T00:38:56.592Z,912.54
2019-02-11T00:39:56.569Z,912.58
2019-02-11T00:40:56.492Z,912.56
2019-02-11T00:41:56.481Z,912.59
2019-02-11T00:42:56.458Z,912.56
2019-02-11T00:43:56.423Z,912.59
2019-02-11T00:44:56.391Z,912.60
2019-02-11T00:45:56.341Z,912.58
2019-02-11T00:46:56.727Z,912.57
2019-02-11T00:47:56.297Z,912.58
2019-02-11T00:48:56.257Z,912.65
2019-02-11T00:49:56.238Z,912.63
2019-02-11T00:50:56.182Z,912.66
2019-02-11T00:51:56.164Z,912.66
2019-02-11T00:52:56.115Z,912.69
2019-02-11T00:53:56.102Z,912.72
2019-02-11T00:54:56.065Z,912.71
2019-02-11T00:55:56.045Z,912.72
2019-02-11T00:56:56.010Z,912.72
2019-02-11T00:57:55.960Z,912.71
2019-02-11T00:58:55.930Z,912.70
2019-02-11T00:59:55.906Z,912.70
2019-02-11T01:00:55.859Z,912.70
2019-02-11T01:01:55.832Z,912.72
2019-02-11T01:02:55.796Z,912.73
2019-02-11T01:03:55.773Z,912.75
2019-02-11T01:04:55.763Z,912.73
2019-02-11T01:05:55.693Z,912.73
2019-02-11T01:06:55.668Z,912.72
2019-02-11T01:07:55.629Z,912.74
2019-02-11T01:08:55.816Z,912.72
2019-02-11T01:09:55.578Z,912.72
2019-02-11T01:10:55.546Z,912.73
2019-02-11T01:11:55.506Z,912.79
2019-02-11T01:12:55.488Z,912.74
2019-02-11T01:13:55.437Z,912.77
2019-02-11T01:14:55.424Z,912.78
2019-02-11T01:15:55.363Z,912.80
2019-02-11T01:16:55.379Z,912.78
2019-02-11T01:17:55.316Z,912.80
2019-02-11T01:18:55.263Z,912.79
2019-02-11T01:19:55.411Z,912.81
2019-02-11T01:20:55.255Z,912.82
2019-02-11T01:21:55.194Z,912.84
2019-02-11T01:22:55.155Z,912.86
2019-02-11T01:23:55.124Z,912.83
2019-02-11T01:24:55.468Z,912.85
2019-02-11T01:25:55.046Z,912.88
2019-02-11T01:26:55.297Z,912.89
2019-02-11T01:27:55.000Z,912.92
2019-02-11T01:28:54.977Z,912.91
2019-02-11T01:29:55.314Z,912.93
2019-02-11T01:30:54.895Z,912.97
2019-02-11T01:31:54.853Z,912.96
2019-02-11T01:32:54.823Z,912.91
2019-02-11T01:33:54.792Z,912.89
2019-02-11T01:34:54.896Z,912.87
2019-02-11T01:35:54.744Z,912.90
2019-02-11T01:36:54.710Z,912.90
2019-02-11T01:37:54.659Z,912.90
2019-02-11T01:38:54.619Z,912.90
2019-02-11T01:39:54.598Z,912.89
2019-02-11T01:40:54.562Z,912.89
2019-02-11T01:41:54.583Z,912.92
2019-02-11T01:42:54.541Z,912.92
2019-02-11T01:43:54.474Z,912.96
2019-02-11T01:44:54.442Z,912.94
2019-02-11T01:45:54.569Z,912.98
2019-02-11T01:46:54.378Z,912.96
2019-02-11T01:47:54.386Z,912.98
2019-02-11T01:48:54.791Z,912.98
2019-02-11T01:49:54.274Z,912.95
2019-02-11T01:50:54.290Z,912.96
2019-02-11T01:51:54.201Z,912.92
2019-02-11T01:52:54.166Z,912.92
2019-02-11T01:53:54.135Z,912.96
2019-02-11T01:54:54.136Z,912.95
2019-02-11T01:55:54.065Z,912.93
2019-02-11T01:56:54.252Z,912.94
2019-02-11T01:57:54.003Z,912.93
2019-02-11T01:58:53.975Z,912.93
2019-02-11T01:59:53.948Z,912.95
2019-02-11T02:00:53.932Z,912.97
2019-02-11T02:01:53.895Z,913.00
2019-02-11T02:02:53.864Z,912.99
2019-02-11T02:03:53.819Z,912.97
2019-02-11T02:04:53.783Z,913.01
2019-02-11T02:05:53.909Z,913.00
2019-02-11T02:06:53.737Z,913.03
2019-02-11T02:07:53.704Z,913.03
2019-02-11T02:08:53.680Z,913.04
2019-02-11T02:09:53.635Z,913.09
2019-02-11T02:10:53.592Z,913.05
2019-02-11T02:11:53.546Z,913.09
2019-02-11T02:12:53.521Z,913.10
2019-02-11T02:13:53.496Z,913.13
2019-02-11T02:14:53.439Z,913.12
2019-02-11T02:15:53.428Z,913.11
2019-02-11T02:16:53.594Z,913.09
2019-02-11T02:17:53.359Z,913.10
2019-02-11T02:18:53.344Z,913.10
2019-02-11T02:19:53.287Z,913.09
2019-02-11T02:20:53.272Z,913.08
2019-02-11T02:21:53.227Z,913.09
2019-02-11T02:22:53.401Z,913.07
2019-02-11T02:23:53.184Z,913.05
2019-02-11T02:24:53.116Z,913.08
2019-02-11T02:25:53.135Z,913.10
2019-02-11T02:26:53.082Z,913.12
2019-02-11T02:27:53.335Z,913.08
2019-02-11T02:28:53.015Z,913.08
2019-02-11T02:29:52.991Z,913.07
2019-02-11T02:30:52.932Z,913.02
2019-02-11T02:31:53.119Z,913.02
2019-02-11T02:32:52.861Z,912.98
2019-02-11T02:33:52.845Z,912.98
2019-02-11T02:34:52.792Z,912.98
2019-02-11T02:35:52.784Z,912.97
2019-02-11T02:36:52.731Z,912.99
2019-02-11T02:37:52.700Z,912.97
2019-02-11T02:38:52.668Z,912.97
2019-02-11T02:39:52.642Z,912.94
2019-02-11T02:40:52.603Z,912.98
2019-02-11T02:41:52.717Z,912.99
2019-02-11T02:42:52.606Z,912.97
2019-02-11T02:43:55.544Z,913.03
2019-02-11T02:44:52.468Z,913.02
2019-02-11T02:45:52.453Z,913.02
2019-02-11T02:46:52.601Z,913.01
2019-02-11T02:47:52.365Z,913.06
2019-02-11T02:48:52.352Z,913.06
2019-02-11T02:49:52.327Z,913.06
2019-02-11T02:50:52.291Z,913.03
2019-02-11T02:51:52.399Z,913.07
2019-02-11T02:52:52.204Z,913.07
2019-02-11T02:53:52.189Z,913.08
2019-02-11T02:54:52.158Z,913.06
2019-02-11T02:55:52.135Z,913.06
2019-02-11T02:56:52.108Z,913.04
2019-02-11T02:57:52.059Z,913.05
2019-02-11T02:58:52.030Z,913.05
2019-02-11T02:59:52.010Z,913.07
2019-02-11T03:00:51.951Z,913.06
2019-02-11T03:01:51.931Z,913.05
2019-02-11T03:02:51.890Z,913.07
2019-02-11T03:03:51.844Z,913.02
2019-02-11T03:04:51.830Z,913.02
2019-02-11T03:05:52.964Z,913.02
2019-02-11T03:06:51.774Z,913.01
2019-02-11T03:07:51.907Z,913.00
2019-02-11T03:08:51.831Z,912.98
2019-02-11T03:09:51.708Z,912.94
2019-02-11T03:10:51.628Z,912.94
2019-02-11T03:11:51.580Z,912.93
2019-02-11T03:12:51.566Z,912.94
2019-02-11T06:24:15.903Z,912.31
2019-02-11T06:25:15.500Z,912.30
2019-02-11T06:26:15.434Z,912.29
2019-02-11T06:27:15.401Z,912.32
2019-02-11T06:28:15.362Z,912.33
2019-02-11T06:29:15.320Z,912.33
2019-02-11T06:30:15.430Z,912.34
2019-02-11T06:31:15.256Z,912.37
2019-02-11T06:32:15.250Z,912.35
2019-02-11T06:33:15.226Z,912.36
2019-02-11T06:34:15.192Z,912.37
2019-02-11T06:35:15.144Z,912.41
2019-02-11T06:36:15.111Z,912.42
2019-02-11T06:37:15.090Z,912.42
2019-02-11T06:38:15.055Z,912.44
2019-02-11T06:39:15.023Z,912.49
2019-02-11T06:40:14.976Z,912.49
2019-02-11T06:41:14.936Z,912.51
2019-02-11T06:42:14.928Z,912.50
2019-02-11T06:43:14.872Z,912.50
2019-02-11T06:44:14.858Z,912.51
2019-02-11T06:45:14.818Z,912.52
2019-02-11T06:46:14.798Z,912.51
2019-02-11T06:47:14.754Z,912.54
2019-02-11T06:48:14.695Z,912.56
2019-02-11T06:49:14.672Z,912.51
2019-02-11T06:50:14.635Z,912.54
2019-02-11T06:51:14.810Z,912.55
2019-02-11T06:52:14.599Z,912.55
2019-02-11T06:53:14.547Z,912.56
2019-02-11T06:54:14.542Z,912.57
2019-02-11T06:55:14.633Z,912.54
2019-02-11T06:56:14.446Z,912.52
2019-02-11T06:57:14.831Z,912.53
2019-02-11T06:58:14.405Z,912.55
2019-02-11T06:59:14.351Z,912.58
2019-02-11T07:00:14.322Z,912.54
2019-02-11T07:01:14.283Z,912.53
2019-02-11T07:02:14.247Z,912.58
2019-02-11T07:03:14.419Z,912.58
2019-02-11T07:04:14.185Z,912.59
2019-02-11T07:05:14.173Z,912.56
2019-02-11T07:06:14.096Z,912.54
2019-02-11T07:07:14.187Z,912.55
2019-02-11T07:08:14.049Z,912.53
2019-02-11T07:09:14.019Z,912.56
2019-02-11T07:10:13.987Z,912.57
2019-02-11T07:11:13.953Z,912.57
2019-02-11T07:12:13.935Z,912.56
2019-02-11T07:13:13.886Z,912.59
2019-02-11T07:14:13.858Z,912.55
2019-02-11T07:15:21.697Z,912.54
2019-02-11T07:16:13.789Z,912.54
2019-02-11T07:17:13.765Z,912.54
2019-02-11T07:18:13.743Z,912.56
2019-02-11T07:19:13.696Z,912.55
2019-02-11T07:20:13.644Z,912.55
2019-02-11T07:21:13.631Z,912.55
2019-02-11T07:22:13.587Z,912.54
2019-02-11T07:23:13.548Z,912.57
2019-02-11T07:24:13.739Z,912.56
2019-02-11T07:25:13.550Z,912.58
2019-02-11T07:26:13.469Z,912.60
2019-02-11T07:27:13.439Z,912.57
2019-02-11T07:28:13.372Z,912.53
2019-02-11T07:29:13.360Z,912.59
2019-02-11T07:30:13.490Z,912.57
2019-02-11T07:31:13.299Z,912.54
2019-02-11T07:32:13.273Z,912.56
2019-02-11T07:33:13.243Z,912.57
2019-02-11T07:34:13.248Z,912.57
2019-02-11T07:35:13.271Z,912.58
2019-02-11T07:36:13.146Z,912.58
2019-02-11T07:37:13.206Z,912.55
2019-02-11T07:38:13.080Z,912.56
2019-02-11T07:39:13.066Z,912.57
2019-02-11T07:40:12.994Z,912.56
2019-02-11T07:41:12.962Z,912.62
2019-02-11T07:42:12.931Z,912.65
2019-02-11T07:43:12.888Z,912.63
2019-02-11T07:44:12.850Z,912.65
2019-02-11T07:45:12.839Z,912.66
2019-02-11T07:46:12.790Z,912.66
2019-02-11T07:47:12.767Z,912.70
2019-02-11T07:48:12.718Z,912.71
2019-02-11T07:49:12.707Z,912.71
2019-02-11T07:50:12.665Z,912.71
2019-02-11T07:51:12.658Z,912.75
2019-02-11T07:52:12.625Z,912.74
2019-02-11T07:53:12.576Z,912.74
2019-02-11T07:54:12.542Z,912.75
2019-02-11T07:55:12.505Z,912.77
2019-02-11T07:56:12.479Z,912.74
2019-02-11T07:57:12.444Z,912.79
2019-02-11T07:58:12.414Z,912.79
2019-02-11T07:59:12.362Z,912.84
2019-02-11T08:00:12.368Z,912.80
2019-02-11T08:01:12.304Z,912.84
2019-02-11T08:02:12.262Z,912.87
2019-02-11T08:03:12.247Z,912.85
2019-02-11T08:04:12.209Z,912.85
2019-02-11T08:05:12.154Z,912.86
2019-02-11T08:06:12.150Z,912.83
2019-02-11T08:07:12.098Z,912.82
2019-02-11T08:08:12.083Z,912.83
2019-02-11T08:09:12.142Z,912.85
2019-02-11T08:10:11.992Z,912.87
2019-02-11T08:11:12.525Z,912.89
2019-02-11T08:12:12.491Z,912.86
2019-02-11T08:13:11.918Z,912.86
2019-02-11T08:14:11.885Z,912.87
2019-02-11T08:15:11.914Z,912.87
2019-02-11T08:16:11.819Z,912.86
2019-02-11T08:17:11.939Z,912.84
2019-02-11T08:18:11.774Z,912.88
2019-02-11T08:19:11.719Z,912.86
2019-02-11T08:20:11.719Z,912.82
2019-02-11T08:21:11.651Z,912.84
2019-02-11T08:22:11.685Z,912.83
2019-02-11T08:23:13.744Z,912.85
2019-02-11T08:24:11.752Z,912.87
2019-02-11T08:25:11.504Z,912.84
2019-02-11T08:26:11.499Z,912.87
2019-02-11T08:27:11.443Z,912.88
2019-02-11T08:28:19.238Z,912.89
2019-02-11T08:29:11.559Z,912.84
2019-02-11T08:30:11.336Z,912.92
2019-02-11T08:31:11.323Z,912.90
2019-02-11T08:32:11.275Z,912.92
2019-02-11T08:33:11.254Z,912.91
2019-02-11T08:34:11.214Z,912.94
2019-02-11T08:35:11.189Z,912.94
2019-02-11T08:36:11.138Z,912.97
2019-02-11T08:37:11.124Z,912.99
2019-02-11T08:38:11.066Z,912.97
2019-02-11T08:39:11.053Z,912.96
2019-02-11T08:40:11.025Z,912.93
2019-02-11T08:41:10.990Z,912.97
2019-02-11T08:42:10.949Z,912.97
2019-02-11T08:43:10.912Z,912.95
2019-02-11T08:44:10.887Z,912.96
2019-02-11T08:45:10.850Z,913.00
2019-02-11T08:46:10.816Z,913.00
2019-02-11T08:47:10.794Z,913.01
2019-02-11T08:48:10.767Z,913.01
2019-02-11T08:49:10.723Z,912.97
2019-02-11T08:50:10.690Z,912.99
2019-02-11T08:51:10.642Z,913.01
2019-02-11T08:52:10.650Z,913.01
2019-02-11T08:53:10.583Z,913.02
2019-02-11T08:54:10.546Z,912.99
2019-02-11T08:55:10.883Z,913.01
2019-02-11T08:56:10.477Z,913.03
2019-02-11T08:57:10.464Z,913.04
2019-02-11T08:58:10.399Z,913.12
2019-02-11T08:59:10.386Z,913.09
2019-02-11T09:00:10.350Z,913.11
2019-02-11T09:01:10.468Z,913.09
2019-02-11T09:02:10.266Z,913.10
2019-02-11T09:03:10.253Z,913.16
2019-02-11T09:04:18.581Z,913.18
2019-02-11T09:05:10.265Z,913.12
2019-02-11T09:06:10.165Z,913.20
2019-02-11T09:08:10.096Z,913.19
2019-02-11T09:09:10.046Z,913.17
2019-02-11T09:10:10.047Z,913.17
2019-02-11T09:11:09.977Z,913.21
2019-02-11T09:12:09.979Z,913.24
2019-02-11T09:13:09.909Z,913.20
2019-02-11T09:14:09.911Z,913.24
2019-02-11T09:15:09.835Z,913.23
2019-02-11T09:16:09.806Z,913.21
2019-02-11T09:17:10.580Z,913.20
2019-02-11T09:18:09.766Z,913.21
2019-02-11T09:19:09.719Z,913.20
2019-02-11T09:20:09.704Z,913.21
2019-02-11T09:21:09.659Z,913.20
2019-02-11T09:22:09.624Z,913.22
2019-02-11T09:23:09.599Z,913.15
2019-02-11T09:24:09.562Z,913.15
2019-02-11T09:25:09.615Z,913.13
2019-02-11T09:26:09.492Z,913.14
2019-02-11T09:28:09.436Z,913.15
2019-02-11T09:29:09.429Z,913.18
2019-02-11T09:30:09.406Z,913.14
2019-02-11T09:31:09.390Z,913.15
2019-02-11T09:32:09.302Z,913.15
2019-02-11T09:33:09.271Z,913.13
2019-02-11T09:34:09.250Z,913.10
2019-02-11T09:35:09.204Z,913.11
2019-02-11T09:36:09.162Z,913.14
2019-02-11T09:38:09.101Z,913.14
2019-02-11T09:39:09.055Z,913.12
2019-02-11T09:40:09.030Z,913.15
2019-02-11T09:41:08.997Z,913.18
2019-02-11T09:42:09.290Z,913.19
2019-02-11T09:43:08.948Z,913.17
2019-02-11T09:44:08.901Z,913.20
2019-02-11T09:45:08.858Z,913.22
2019-02-11T09:46:08.814Z,913.19
2019-02-11T09:47:08.790Z,913.23
2019-02-11T09:48:08.746Z,913.26
2019-02-11T09:49:09.041Z,913.25
2019-02-11T09:50:08.712Z,913.23
2019-02-11T09:51:08.655Z,913.24
2019-02-11T09:52:08.620Z,913.27
2019-02-11T09:53:08.591Z,913.31
2019-02-11T09:54:08.923Z,913.32
2019-02-11T09:55:08.530Z,913.34
2019-02-11T09:56:08.493Z,913.31
2019-02-11T09:57:08.467Z,913.27
2019-02-11T09:58:08.463Z,913.33
2019-02-11T09:59:08.392Z,913.31
2019-02-11T10:00:08.522Z,913.35
2019-02-11T10:01:08.318Z,913.40
2019-02-11T10:02:08.297Z,913.39
2019-02-11T10:03:08.278Z,913.42
2019-02-11T10:04:08.227Z,913.43
2019-02-11T10:05:08.390Z,913.45
2019-02-11T10:06:08.170Z,913.47
2019-02-11T10:07:08.283Z,913.48
2019-02-11T10:08:08.148Z,913.52
2019-02-11T10:09:08.082Z,913.50
2019-02-11T10:10:08.055Z,913.49
2019-02-11T10:11:08.010Z,913.51
2019-02-11T10:12:08.076Z,913.46
2019-02-11T10:13:07.944Z,913.47
2019-02-11T10:14:08.114Z,913.46
2019-02-11T10:15:07.860Z,913.48
2019-02-11T10:16:12.488Z,913.45
2019-02-11T10:17:07.818Z,913.44
2019-02-11T10:18:07.961Z,913.42
2019-02-11T10:19:07.732Z,913.43
2019-02-11T10:20:07.727Z,913.46
2019-02-11T10:21:07.675Z,913.46
2019-02-11T10:22:07.654Z,913.44
2019-02-11T10:23:07.831Z,913.47
2019-02-11T10:24:07.594Z,913.49
2019-02-11T10:25:07.542Z,913.43
2019-02-11T10:26:07.541Z,913.44
2019-02-11T10:27:07.489Z,913.40
2019-02-11T10:28:07.605Z,913.47
2019-02-11T10:29:07.650Z,913.51
2019-02-11T10:30:07.399Z,913.51
2019-02-11T10:31:07.355Z,913.49
2019-02-11T10:33:07.383Z,913.50
2019-02-11T10:34:07.249Z,913.51
2019-02-11T10:35:07.242Z,913.53
2019-02-11T10:36:07.221Z,913.57
2019-02-11T10:37:07.465Z,913.53
2019-02-11T10:38:07.139Z,913.61
2019-02-11T10:39:07.100Z,913.62
2019-02-11T10:40:07.088Z,913.63
2019-02-11T10:41:07.022Z,913.59
2019-02-11T10:42:07.031Z,913.62
2019-02-11T10:43:06.961Z,913.62
2019-02-11T10:44:06.928Z,913.65
2019-02-11T10:45:06.906Z,913.64
2019-02-11T10:46:06.866Z,913.65
2019-02-11T10:47:06.834Z,913.68
2019-02-11T10:48:06.822Z,913.68
2019-02-11T10:49:06.798Z,913.67
2019-02-11T10:50:06.749Z,913.74
2019-02-11T10:51:06.738Z,913.71
2019-02-11T10:52:06.666Z,913.69
2019-02-11T10:54:06.611Z,913.67
2019-02-11T10:55:06.592Z,913.68
2019-02-11T10:56:06.566Z,913.65
2019-02-11T10:57:06.546Z,913.65
2019-02-11T10:58:06.476Z,913.69
2019-02-11T10:59:06.519Z,913.67
2019-02-11T11:00:06.414Z,913.68
2019-02-11T11:01:06.412Z,913.69
2019-02-11T11:02:06.369Z,913.69
2019-02-11T11:03:06.337Z,913.67
2019-02-11T11:04:06.286Z,913.67
2019-02-11T11:05:06.286Z,913.68
2019-02-11T11:06:06.457Z,913.69
2019-02-11T11:07:06.208Z,913.68
2019-02-11T11:08:06.216Z,913.72
2019-02-11T11:09:06.148Z,913.70
2019-02-11T11:10:06.130Z,913.72
2019-02-11T11:11:06.096Z,913.70
2019-02-11T11:12:06.047Z,913.70
2019-02-11T11:13:06.162Z,913.73
2019-02-11T11:14:05.988Z,913.74
2019-02-11T11:15:05.974Z,913.76
2019-02-11T11:16:05.914Z,913.77
2019-02-11T11:17:05.890Z,913.81
2019-02-11T11:18:05.866Z,913.82
2019-02-11T11:19:05.826Z,913.80
2019-02-11T11:20:05.791Z,913.82
2019-02-11T11:21:05.767Z,913.81
2019-02-11T11:22:05.730Z,913.85
2019-02-11T11:23:05.716Z,913.84
2019-02-11T11:24:05.694Z,913.85
2019-02-11T11:25:05.652Z,913.90
2019-02-11T11:26:05.612Z,913.91
2019-02-11T11:27:05.589Z,913.94
2019-02-11T11:28:05.550Z,913.95
2019-02-11T11:29:06.054Z,913.98
2019-02-11T11:30:05.497Z,913.98
2019-02-11T11:31:05.477Z,913.99
2019-02-11T11:32:05.411Z,914.03
2019-02-11T11:33:05.383Z,914.06
2019-02-11T11:34:05.348Z,914.09
2019-02-11T11:35:05.349Z,914.10
2019-02-11T11:36:05.378Z,914.12
2019-02-11T11:37:05.277Z,914.15
2019-02-11T11:38:05.244Z,914.15
2019-02-11T11:39:05.203Z,914.19
2019-02-11T11:40:05.158Z,914.21
2019-02-11T11:41:05.136Z,914.26
2019-02-11T11:42:05.152Z,914.29
2019-02-11T11:43:05.087Z,914.22
2019-02-11T11:44:05.048Z,914.23
2019-02-11T11:45:05.030Z,914.29
2019-02-11T11:46:04.986Z,914.30
2019-02-11T11:47:04.965Z,914.34
2019-02-11T11:48:04.938Z,914.32
2019-02-11T11:49:04.886Z,914.36
2019-02-11T11:50:04.849Z,914.35
2019-02-11T11:51:04.820Z,914.39
2019-02-11T11:52:04.805Z,914.45
2019-02-11T11:53:04.763Z,914.47
2019-02-11T11:54:04.724Z,914.43
2019-02-11T11:55:04.688Z,914.43
2019-02-11T11:56:04.869Z,914.45
2019-02-11T11:57:04.650Z,914.49
2019-02-11T11:58:04.602Z,914.50
2019-02-11T11:59:04.587Z,914.53
2019-02-11T12:00:04.555Z,914.53
2019-02-11T12:01:04.558Z,914.54
2019-02-11T12:02:04.487Z,914.49
2019-02-11T12:03:05.696Z,914.48
2019-02-11T12:04:06.584Z,914.49
2019-02-11T12:05:04.438Z,914.52
2019-02-11T12:06:04.960Z,914.56
2019-02-11T12:07:04.513Z,914.57
2019-02-11T12:08:04.603Z,914.60
2019-02-11T12:09:04.350Z,914.59
2019-02-11T12:10:04.362Z,914.57
2019-02-11T12:11:04.234Z,914.58
2019-02-11T12:12:04.418Z,914.60
2019-02-11T12:13:21.908Z,914.64
2019-02-11T12:14:04.169Z,914.67
2019-02-11T12:15:04.158Z,914.63
2019-02-11T12:16:04.211Z,914.70
2019-02-11T12:17:04.298Z,914.72
2019-02-11T12:18:04.072Z,914.70
2019-02-11T12:19:04.085Z,914.71
2019-02-11T12:20:04.141Z,914.73
2019-02-11T12:21:04.064Z,914.78
2019-02-11T12:23:04.039Z,914.79
2019-02-11T12:24:03.940Z,914.79
2019-02-11T12:25:03.915Z,914.77
2019-02-11T12:26:03.946Z,914.74
2019-02-11T12:27:03.751Z,914.78
2019-02-11T12:28:03.805Z,914.80
2019-02-11T12:29:03.877Z,914.78
2019-02-11T12:30:03.644Z,914.82
2019-02-11T12:31:03.727Z,914.84
2019-02-11T12:32:03.632Z,914.87
2019-02-11T12:33:03.557Z,914.83
2019-02-11T12:34:03.530Z,914.80
2019-02-11T12:35:03.857Z,914.83
2019-02-11T12:36:03.453Z,914.82
2019-02-11T12:37:03.422Z,914.84
2019-02-11T12:38:03.394Z,914.85
2019-02-11T12:39:03.383Z,914.86
2019-02-11T12:40:03.319Z,914.83
2019-02-11T12:41:03.745Z,914.78
2019-02-11T12:42:03.371Z,914.70
2019-02-11T12:43:03.249Z,914.67
2019-02-11T12:44:03.199Z,914.75
2019-02-11T12:45:03.199Z,914.76
2019-02-11T12:46:03.155Z,914.75
2019-02-11T12:47:14.309Z,914.76
2019-02-11T12:48:03.099Z,914.75
2019-02-11T12:49:03.100Z,914.76
2019-02-11T12:50:03.051Z,914.78
2019-02-11T12:51:02.996Z,914.75
2019-02-11T12:52:03.206Z,914.74
2019-02-11T12:53:02.956Z,914.75
2019-02-11T12:54:02.942Z,914.71
2019-02-11T12:55:07.501Z,914.69
2019-02-11T12:56:03.205Z,914.62
2019-02-11T12:57:02.832Z,914.64
2019-02-11T12:58:02.788Z,914.61
2019-02-11T12:59:02.792Z,914.63
2019-02-11T13:00:02.743Z,914.60
2019-02-11T13:01:02.733Z,914.59
2019-02-11T13:02:02.687Z,914.57
2019-02-11T13:03:02.794Z,914.57
2019-02-11T13:04:02.643Z,914.53
2019-02-11T13:05:02.610Z,914.51
2019-02-11T13:06:02.557Z,914.47
2019-02-11T13:07:02.536Z,914.41
2019-02-11T13:08:02.651Z,914.39
2019-02-11T13:09:02.547Z,914.38
2019-02-11T13:10:02.450Z,914.41
2019-02-11T13:11:02.459Z,914.39
2019-02-11T13:12:02.405Z,914.39
2019-02-11T13:13:06.022Z,914.44
2019-02-11T13:14:02.337Z,914.45
2019-02-11T13:15:02.367Z,914.48
2019-02-11T13:16:03.107Z,914.51
2019-02-11T13:17:14.776Z,914.49
2019-02-11T13:18:02.341Z,914.44
2019-02-11T13:19:02.197Z,914.39
2019-02-11T13:20:08.651Z,914.40
2019-02-11T13:21:02.283Z,914.36
2019-02-11T13:22:02.105Z,914.37
2019-02-11T13:23:02.092Z,914.37
2019-02-11T13:24:02.043Z,914.38
2019-02-11T13:25:02.029Z,914.35
2019-02-11T13:26:01.984Z,914.32
2019-02-11T13:27:01.971Z,914.29
2019-02-11T13:28:01.933Z,914.29
2019-02-11T13:29:01.907Z,914.28
2019-02-11T13:30:01.871Z,914.27
2019-02-11T13:31:01.873Z,914.26
2019-02-11T13:32:01.814Z,914.26
2019-02-11T13:33:01.799Z,914.28
2019-02-11T13:34:02.157Z,914.26
2019-02-11T13:35:01.748Z,914.28
2019-02-11T13:36:01.734Z,914.27
2019-02-11T13:37:01.659Z,914.23
2019-02-11T13:38:01.663Z,914.26
2019-02-11T13:39:01.657Z,914.19
2019-02-11T13:40:01.778Z,914.19
2019-02-11T13:41:01.550Z,914.17
2019-02-11T13:42:01.589Z,914.14
2019-02-11T13:43:01.507Z,914.13
2019-02-11T13:44:01.534Z,914.05
2019-02-11T13:45:01.545Z,914.07
2019-02-11T13:46:01.423Z,914.04
2019-02-11T13:47:01.457Z,914.05
2019-02-11T13:48:01.394Z,914.07
2019-02-11T13:49:01.330Z,914.02
2019-02-11T13:50:01.316Z,914.07
2019-02-11T13:51:01.299Z,914.01
2019-02-11T13:52:01.259Z,914.01
2019-02-11T13:53:01.233Z,913.97
2019-02-11T13:54:01.191Z,914.02
2019-02-11T13:55:01.234Z,914.02
2019-02-11T13:57:01.117Z,914.00
2019-02-11T13:58:01.064Z,913.96
2019-02-11T13:59:01.051Z,913.95
2019-02-11T14:00:01.018Z,913.98
2019-02-11T14:01:01.021Z,914.00
2019-02-11T14:02:00.980Z,913.97
2019-02-11T14:03:00.969Z,913.95
2019-02-11T14:04:00.925Z,913.95
2019-02-11T14:05:01.061Z,913.96
2019-02-11T14:06:00.865Z,913.95
2019-02-11T14:07:00.899Z,913.92
2019-02-11T14:08:00.821Z,913.92
2019-02-11T14:09:00.964Z,913.86
2019-02-11T14:10:02.365Z,913.87
2019-02-11T14:11:00.752Z,913.88
2019-02-11T14:12:00.723Z,913.85
2019-02-11T14:13:00.688Z,913.93
2019-02-11T14:14:03.540Z,913.85
2019-02-11T14:15:00.887Z,913.78
2019-02-11T14:16:00.620Z,913.82
2019-02-11T14:17:00.574Z,913.82
2019-02-11T14:18:11.924Z,913.82
2019-02-11T14:19:00.527Z,913.80
2019-02-11T14:20:00.495Z,913.75
2019-02-11T14:21:00.817Z,913.75
2019-02-11T14:22:00.436Z,913.78
2019-02-11T14:23:00.423Z,913.78
2019-02-11T14:24:00.376Z,913.76
2019-02-11T14:25:00.539Z,913.72
2019-02-11T14:26:00.321Z,913.78
2019-02-11T14:27:00.466Z,913.81
2019-02-11T14:28:00.243Z,913.80
2019-02-11T14:29:00.241Z,913.77
2019-02-11T14:30:00.446Z,913.70
2019-02-11T14:31:00.177Z,913.73
2019-02-11T14:32:00.146Z,913.70
2019-02-11T14:33:00.131Z,913.72
2019-02-11T14:34:00.098Z,913.70
2019-02-11T14:35:00.391Z,913.68
2019-02-11T14:36:00.168Z,913.69
2019-02-11T14:37:00.010Z,913.67
2019-02-11T14:38:02.346Z,913.69
2019-02-11T14:38:59.954Z,913.72
2019-02-11T14:39:59.935Z,913.71
2019-02-11T14:40:59.895Z,913.67
2019-02-11T14:42:00.185Z,913.71
2019-02-11T14:42:59.859Z,913.68
2019-02-11T14:43:59.883Z,913.67
2019-02-11T14:44:59.798Z,913.62
2019-02-11T14:45:59.776Z,913.63
2019-02-11T14:46:59.746Z,913.62
2019-02-11T14:47:59.692Z,913.58
2019-02-11T14:48:59.670Z,913.56
2019-02-11T14:49:59.625Z,913.46
2019-02-11T14:50:59.631Z,913.44
2019-02-11T14:51:59.577Z,913.41
2019-02-11T14:52:59.557Z,913.42
2019-02-11T14:53:59.547Z,913.38
2019-02-11T14:54:59.482Z,913.37
2019-02-11T14:55:59.457Z,913.36
2019-02-11T14:56:59.465Z,913.31
2019-02-11T14:57:59.424Z,913.30
2019-02-11T14:58:59.405Z,913.28
2019-02-11T14:59:59.373Z,913.20
2019-02-11T15:00:59.346Z,913.17
2019-02-11T15:01:59.298Z,913.15
2019-02-11T15:02:59.282Z,913.17
2019-02-11T15:03:59.248Z,913.16
2019-02-11T15:04:59.224Z,913.16
2019-02-11T15:05:59.181Z,913.19
2019-02-11T15:06:59.172Z,913.18
2019-02-11T15:07:59.149Z,913.15
2019-02-11T15:08:59.111Z,913.14
2019-02-11T15:09:59.062Z,913.16
2019-02-11T15:10:59.040Z,913.13
2019-02-11T15:11:59.410Z,913.08
2019-02-11T15:12:59.024Z,913.12
2019-02-11T15:13:59.025Z,913.13
2019-02-11T15:14:59.026Z,913.13
2019-02-11T15:15:59.014Z,913.15
2019-02-11T15:16:59.261Z,913.19
2019-02-11T15:17:58.859Z,913.12
2019-02-11T15:18:58.820Z,913.16
2019-02-11T15:19:58.804Z,913.09
2019-02-11T15:20:58.750Z,913.15
2019-02-11T15:21:58.759Z,913.13
2019-02-11T15:22:58.759Z,913.11
2019-02-11T15:23:58.685Z,913.11
2019-02-11T15:24:58.665Z,913.04
2019-02-11T15:25:58.630Z,913.09
2019-02-11T15:26:58.608Z,913.08
2019-02-11T15:27:58.557Z,913.06
2019-02-11T15:28:58.530Z,913.03
2019-02-11T15:29:58.512Z,913.03
2019-02-11T15:30:58.492Z,913.00
2019-02-11T15:31:58.449Z,913.02
2019-02-11T15:32:58.425Z,913.06
2019-02-11T15:33:58.416Z,912.98
2019-02-11T15:34:58.349Z,912.93
2019-02-11T15:35:58.338Z,912.91
2019-02-11T15:36:58.314Z,912.89
2019-02-11T15:37:58.290Z,912.87
2019-02-11T15:38:58.241Z,912.79
2019-02-11T15:39:58.236Z,912.80
2019-02-11T15:40:58.200Z,912.77
2019-02-11T15:41:58.172Z,912.80
2019-02-11T15:42:58.142Z,912.79
2019-02-11T15:43:58.101Z,912.75
2019-02-11T15:44:58.067Z,912.75
2019-02-11T15:45:58.050Z,912.71
2019-02-11T15:46:58.019Z,912.71
2019-02-11T15:47:58.006Z,912.72
2019-02-11T15:48:57.973Z,912.66
2019-02-11T15:50:57.914Z,912.61
2019-02-11T15:51:57.882Z,912.66
2019-02-11T15:52:59.015Z,912.65
2019-02-11T15:53:57.825Z,912.62
2019-02-11T15:54:57.827Z,912.60
2019-02-11T15:55:57.891Z,912.55